createdAt,value
2019-05-10T00:01:44.891Z,4.07
2019-05-10T00:04:39.123Z,3.00
2019-05-10T00:07:28.445Z,3.87
2019-05-10T00:10:02.194Z,4.00
2019-05-10T00:12:47.477Z,3.23
2019-05-10T00:15:21.285Z,4.67
2019-05-10T00:17:55.753Z,3.43
2019-05-10T00:20:31.608Z,4.57
2019-05-10T00:23:08.179Z,3.13
2019-05-10T00:25:42.246Z,4.13
2019-05-10T00:28:16.510Z,4.40
2019-05-10T00:30:51.400Z,3.23
2019-05-10T00:33:23.153Z,3.93
2019-05-10T00:35:57.519Z,4.83
2019-05-10T00:38:36.490Z,4.80
2019-05-10T00:41:12.381Z,3.37
2019-05-10T00:43:51.869Z,3.17
2019-05-10T00:46:29.339Z,3.93
2019-05-10T00:49:03.855Z,3.87
2019-05-10T00:51:42.270Z,2.43
2019-05-10T00:54:13.882Z,3.13
2019-05-10T00:56:48.937Z,3.40
2019-05-10T00:59:20.267Z,3.93
2019-05-10T01:01:54.351Z,2.43
2019-05-10T01:04:27.725Z,3.40
2019-05-10T01:07:00.806Z,2.60
2019-05-10T01:09:36.929Z,2.43
2019-05-10T01:12:10.105Z,4.67
2019-05-10T01:14:45.960Z,3.67
2019-05-10T01:17:21.449Z,3.13
2019-05-10T01:19:54.867Z,3.20
2019-05-10T01:22:27.945Z,3.07
2019-05-10T01:25:01.903Z,6.57
2019-05-10T01:27:31.977Z,3.40
2019-05-10T01:30:07.637Z,2.67
2019-05-10T01:32:43.414Z,3.83
2019-05-10T01:35:15.235Z,3.20
2019-05-10T01:37:51.193Z,3.57
2019-05-10T01:40:24.042Z,2.83
2019-05-10T01:43:05.080Z,2.87
2019-05-10T01:45:35.238Z,4.40
2019-05-10T01:48:10.879Z,2.47
2019-05-10T01:50:47.547Z,3.40
2019-05-10T01:53:24.778Z,2.27
2019-05-10T01:56:00.432Z,2.93
2019-05-10T01:58:34.954Z,3.83
2019-05-10T02:01:08.453Z,2.90
2019-05-10T02:03:45.504Z,3.20
2019-05-10T02:06:18.654Z,3.20
2019-05-10T02:08:58.782Z,3.87
2019-05-10T02:11:35.065Z,2.67
2019-05-10T02:14:09.998Z,3.87
2019-05-10T02:16:45.240Z,2.97
2019-05-10T02:19:24.822Z,3.63
2019-05-10T02:22:05.290Z,2.40
2019-05-10T02:24:46.016Z,2.80
2019-05-10T02:27:26.476Z,4.03
2019-05-10T02:30:05.242Z,3.13
2019-05-10T02:32:42.692Z,3.73
2019-05-10T02:35:24.835Z,2.77
2019-05-10T02:38:04.436Z,2.50
2019-05-10T02:40:47.412Z,2.30
2019-05-10T02:43:28.444Z,2.57
2019-05-10T02:46:03.982Z,4.37
2019-05-10T02:48:35.740Z,2.97
2019-05-10T02:51:10.268Z,2.33
2019-05-10T02:53:45.222Z,3.20
2019-05-10T02:56:29.212Z,2.53
2019-05-10T02:58:48.821Z,2.80
2019-05-10T03:01:23.598Z,2.70
2019-05-10T03:03:54.538Z,4.10
2019-05-10T03:06:28.445Z,3.50
2019-05-10T03:09:04.203Z,3.97
2019-05-10T03:11:49.621Z,3.47
2019-05-10T03:14:21.337Z,3.93
2019-05-10T03:16:52.125Z,4.13
2019-05-10T03:19:24.277Z,3.93
2019-05-10T03:22:10.198Z,3.90
2019-05-10T03:24:42.757Z,3.30
2019-05-10T03:27:13.745Z,3.33
2019-05-10T03:29:45.453Z,3.60
2019-05-10T03:32:17.141Z,5.70
2019-05-10T03:34:47.604Z,4.03
2019-05-10T03:37:19.921Z,3.80
2019-05-10T03:39:53.256Z,3.67
2019-05-10T03:42:26.603Z,3.13
2019-05-10T03:44:56.927Z,3.87
2019-05-10T03:47:30.119Z,4.60
2019-05-10T03:50:00.343Z,4.20
2019-05-10T03:52:33.596Z,3.73
2019-05-10T03:55:09.550Z,8.63
2019-05-10T03:57:44.045Z,7.67
2019-05-10T04:00:16.412Z,3.73
2019-05-10T04:02:49.479Z,4.07
2019-05-10T04:05:22.692Z,3.77
2019-05-10T04:07:55.457Z,4.50
2019-05-10T04:10:28.750Z,5.50
2019-05-10T04:12:58.977Z,4.20
2019-05-10T04:15:32.447Z,4.07
2019-05-10T04:18:10.337Z,4.17
2019-05-10T04:20:48.632Z,4.37
2019-05-10T04:23:24.764Z,4.23
2019-05-10T04:25:59.870Z,5.30
2019-05-10T04:28:31.483Z,4.37
2019-05-10T04:31:03.762Z,5.60
2019-05-10T04:33:40.485Z,4.97
2019-05-10T04:36:16.490Z,4.60
2019-05-10T04:38:48.403Z,5.23
2019-05-10T04:41:21.748Z,5.87
2019-05-10T04:43:53.559Z,5.93
2019-05-10T04:46:28.332Z,5.17
2019-05-10T04:49:11.439Z,5.50
2019-05-10T04:51:33.692Z,6.13
2019-05-10T04:54:09.584Z,4.67
2019-05-10T04:56:43.285Z,5.10
2019-05-10T04:59:16.649Z,4.67
2019-05-10T05:01:49.725Z,4.47
2019-05-10T05:04:23.322Z,7.20
2019-05-10T05:06:55.550Z,4.30
2019-05-10T05:09:42.289Z,5.33
2019-05-10T05:12:03.652Z,4.37
2019-05-10T05:14:38.943Z,5.37
2019-05-10T05:17:12.731Z,5.07
2019-05-10T05:19:44.713Z,5.37
2019-05-10T05:22:15.247Z,5.67
2019-05-10T05:24:55.070Z,5.07
2019-05-10T05:27:35.348Z,5.10
2019-05-10T05:30:07.146Z,5.00
2019-05-10T05:32:44.618Z,5.93
2019-05-10T05:35:20.699Z,4.07
2019-05-10T05:37:50.267Z,4.80
2019-05-10T05:40:23.410Z,4.27
2019-05-10T05:43:02.760Z,4.87
2019-05-10T05:45:35.670Z,5.83
2019-05-10T05:48:16.115Z,3.70
2019-05-10T05:50:51.687Z,5.07
2019-05-10T05:53:28.464Z,4.30
2019-05-10T05:56:12.188Z,4.53
2019-05-10T05:58:47.089Z,3.90
2019-05-10T06:01:29.380Z,4.17
2019-05-10T06:04:12.518Z,3.43
2019-05-10T06:06:42.827Z,3.50
2019-05-10T06:09:17.722Z,4.17
2019-05-10T06:11:52.656Z,4.47
2019-05-10T06:14:34.689Z,4.67
2019-05-10T06:17:06.306Z,3.97
2019-05-10T06:19:44.694Z,4.33
2019-05-10T06:22:26.285Z,4.90
2019-05-10T06:25:03.603Z,5.60
2019-05-10T06:27:43.169Z,5.10
2019-05-10T06:30:15.924Z,5.17
2019-05-10T06:33:00.976Z,4.37
2019-05-10T06:35:30.917Z,5.03
2019-05-10T06:38:05.634Z,5.47
2019-05-10T06:40:47.514Z,4.17
2019-05-10T06:43:24.000Z,5.77
2019-05-10T06:46:00.163Z,3.83
2019-05-10T06:48:37.451Z,3.80
2019-05-10T06:51:12.937Z,5.03
2019-05-10T06:53:52.515Z,3.07
2019-05-10T06:56:30.360Z,5.03
2019-05-10T06:59:13.472Z,3.00
2019-05-10T07:01:51.698Z,3.07
2019-05-10T07:04:24.861Z,5.10
2019-05-10T07:07:02.651Z,3.87
2019-05-10T07:10:01.692Z,3.77
2019-05-10T07:12:23.604Z,2.90
2019-05-10T07:14:57.775Z,5.33
2019-05-10T07:17:41.435Z,4.07
2019-05-10T07:20:10.433Z,3.57
2019-05-10T07:22:48.278Z,4.80
2019-05-10T07:25:24.393Z,3.67
2019-05-10T07:28:03.671Z,2.90
2019-05-10T07:30:52.970Z,2.60
2019-05-10T07:33:27.522Z,3.93
2019-05-10T07:36:13.522Z,2.67
2019-05-10T07:38:40.664Z,4.43
2019-05-10T07:41:19.573Z,5.83
2019-05-10T07:44:00.268Z,3.40
2019-05-10T07:46:27.510Z,3.53
2019-05-10T07:49:04.123Z,2.43
2019-05-10T07:51:38.097Z,2.97
2019-05-10T07:54:13.639Z,2.03
2019-05-10T07:56:54.604Z,5.33
2019-05-10T07:59:42.007Z,4.70
2019-05-10T08:02:13.087Z,1.90
2019-05-10T08:04:45.452Z,4.93
2019-05-10T08:07:24.276Z,3.80
2019-05-10T08:10:04.721Z,3.73
2019-05-10T08:12:41.419Z,4.70
2019-05-10T08:15:16.243Z,3.27
2019-05-10T08:17:54.250Z,2.10
2019-05-10T08:20:46.372Z,3.93
2019-05-10T08:23:17.960Z,2.03
2019-05-10T08:25:54.449Z,2.53
2019-05-10T08:28:36.479Z,2.93
2019-05-10T08:31:07.231Z,2.97
2019-05-10T08:33:44.214Z,5.27
2019-05-10T08:36:21.782Z,3.53
2019-05-10T08:39:05.061Z,2.97
2019-05-10T08:41:32.488Z,2.20
2019-05-10T08:44:04.950Z,2.07
2019-05-10T08:46:44.427Z,3.83
2019-05-10T08:49:22.124Z,2.07
2019-05-10T08:51:52.375Z,3.50
2019-05-10T08:54:28.686Z,2.43
2019-05-10T09:00:02.210Z,2.60
2019-05-10T09:02:32.779Z,3.37
2019-05-10T09:05:12.504Z,4.20
2019-05-10T09:07:47.826Z,2.70
2019-05-10T09:10:28.092Z,2.20
2019-05-10T09:13:04.209Z,2.73
2019-05-10T09:15:51.198Z,2.37
2019-05-10T09:18:23.009Z,2.60
2019-05-10T09:21:08.233Z,3.97
2019-05-10T09:23:34.910Z,2.00
2019-05-10T09:26:15.281Z,3.73
2019-05-10T09:28:47.542Z,2.10
2019-05-10T09:31:21.553Z,3.13
2019-05-10T09:33:56.225Z,2.00
2019-05-10T09:36:33.475Z,2.50
2019-05-10T09:39:24.204Z,2.37
2019-05-10T09:41:45.897Z,2.63
2019-05-10T09:44:22.883Z,4.37
2019-05-10T09:47:03.994Z,1.47
2019-05-10T09:49:33.219Z,2.77
2019-05-10T09:52:14.980Z,2.90
2019-05-10T09:54:58.361Z,5.67
2019-05-10T09:57:38.047Z,2.07
2019-05-10T10:00:22.635Z,2.57
2019-05-10T10:03:07.938Z,3.47
2019-05-10T10:05:55.073Z,4.63
2019-05-10T10:08:31.368Z,2.00
2019-05-10T10:11:15.684Z,3.23
2019-05-10T10:14:02.190Z,4.73
2019-05-10T10:16:45.796Z,2.27
2019-05-10T10:19:24.274Z,3.33
2019-05-10T10:22:05.536Z,2.93
2019-05-10T10:24:38.650Z,1.80
2019-05-10T10:27:13.742Z,1.40
2019-05-10T10:29:40.688Z,2.00
2019-05-10T10:32:11.218Z,1.63
2019-05-10T10:34:44.512Z,2.83
2019-05-10T10:37:19.402Z,2.17
2019-05-10T10:39:54.521Z,3.00
2019-05-10T10:42:26.483Z,1.20
2019-05-10T10:44:57.587Z,1.97
2019-05-10T10:47:32.179Z,1.20
2019-05-10T10:50:13.174Z,3.53
2019-05-10T10:52:40.173Z,3.37
2019-05-10T10:55:13.300Z,2.47
2019-05-10T10:57:43.241Z,1.90
2019-05-10T11:00:23.785Z,2.27
2019-05-10T11:02:58.472Z,2.00
2019-05-10T11:05:31.621Z,2.37
2019-05-10T11:08:04.714Z,3.97
2019-05-10T11:10:34.936Z,1.87
2019-05-10T11:13:13.991Z,2.90
2019-05-10T11:15:44.526Z,2.57
2019-05-10T11:18:31.834Z,2.83
2019-05-10T11:21:07.631Z,4.00
2019-05-10T11:23:49.064Z,1.80
2019-05-10T11:26:26.869Z,1.90
2019-05-10T11:28:56.977Z,2.83
2019-05-10T11:31:33.241Z,2.00
2019-05-10T11:34:10.677Z,1.93
2019-05-10T11:36:46.100Z,1.53
2019-05-10T11:39:25.969Z,1.77
2019-05-10T11:42:00.969Z,2.47
2019-05-10T11:44:28.215Z,1.70
2019-05-10T11:47:01.717Z,2.07
2019-05-10T11:49:37.877Z,2.60
2019-05-10T11:52:12.371Z,1.73
2019-05-10T11:54:46.408Z,3.17
2019-05-10T11:57:27.226Z,2.57
2019-05-10T12:00:04.453Z,1.90
2019-05-10T12:02:42.509Z,2.07
2019-05-10T12:05:17.643Z,2.23
2019-05-10T12:07:46.152Z,3.07
2019-05-10T12:10:24.834Z,2.23
2019-05-10T12:13:10.911Z,2.90
2019-05-10T12:15:42.969Z,1.67
2019-05-10T12:18:26.767Z,2.20
2019-05-10T12:21:08.976Z,1.20
2019-05-10T12:23:31.494Z,2.77
2019-05-10T12:28:43.264Z,2.23
2019-05-10T12:31:16.963Z,1.47
2019-05-10T12:33:51.908Z,2.53
2019-05-10T12:36:31.428Z,2.53
2019-05-10T12:39:01.977Z,1.83
2019-05-10T12:41:39.957Z,2.23
2019-05-10T12:44:12.462Z,1.87
2019-05-10T12:46:45.753Z,1.60
2019-05-10T12:49:36.304Z,2.87
2019-05-10T12:51:55.590Z,1.90
2019-05-10T12:54:28.533Z,2.20
2019-05-10T12:57:02.309Z,2.70
2019-05-10T12:59:34.956Z,2.93
2019-05-10T13:02:13.194Z,1.73
2019-05-10T13:04:51.950Z,0.93
2019-05-10T13:07:18.048Z,1.73
2019-05-10T13:09:50.438Z,2.57
2019-05-10T13:12:30.025Z,1.20
2019-05-10T13:15:04.451Z,2.17
2019-05-10T13:17:43.934Z,2.43
2019-05-10T13:20:12.333Z,1.57
2019-05-10T13:22:52.791Z,2.40
2019-05-10T13:25:32.204Z,3.40
2019-05-10T13:28:11.154Z,2.47
2019-05-10T13:30:33.530Z,2.23
2019-05-10T13:33:07.172Z,2.57
2019-05-10T13:35:39.135Z,2.53
2019-05-10T13:38:13.248Z,3.47
2019-05-10T13:40:45.568Z,2.17
2019-05-10T13:43:26.659Z,3.33
2019-05-10T13:45:54.260Z,1.70
2019-05-10T13:48:38.409Z,3.60
2019-05-10T13:51:08.540Z,2.97
2019-05-10T13:53:46.641Z,1.50
2019-05-10T13:56:17.575Z,1.53
2019-05-10T13:58:51.280Z,2.50
2019-05-10T14:01:23.530Z,2.20
2019-05-10T14:04:00.811Z,1.70
2019-05-10T14:06:30.421Z,1.10
2019-05-10T14:09:04.860Z,3.00
2019-05-10T14:11:46.676Z,2.20
2019-05-10T14:14:20.474Z,2.73
2019-05-10T14:16:52.112Z,3.70
2019-05-10T14:19:26.096Z,1.80
2019-05-10T14:22:06.893Z,1.50
2019-05-10T14:24:36.491Z,1.63
2019-05-10T14:27:29.908Z,2.67
2019-05-10T14:29:59.153Z,1.20
2019-05-10T14:32:30.956Z,3.00
2019-05-10T14:35:05.050Z,2.60
2019-05-10T14:37:36.604Z,1.77
2019-05-10T14:40:16.655Z,1.47
2019-05-10T14:42:47.411Z,1.73
2019-05-10T14:45:18.638Z,1.60
2019-05-10T14:47:59.029Z,2.40
2019-05-10T14:50:33.788Z,2.07
2019-05-10T14:53:06.509Z,1.73
2019-05-10T14:55:40.929Z,1.20
2019-05-10T14:58:14.179Z,2.10
2019-05-10T15:00:53.715Z,1.30
2019-05-10T15:03:26.753Z,2.20
2019-05-10T15:06:03.238Z,1.20
2019-05-10T15:08:36.314Z,2.33
2019-05-10T15:11:14.520Z,2.07
2019-05-10T15:13:50.990Z,2.47
2019-05-10T15:16:31.071Z,1.33
2019-05-10T15:18:59.626Z,2.13
2019-05-10T15:21:34.681Z,1.27
2019-05-10T15:24:11.247Z,2.70
2019-05-10T15:26:46.150Z,1.50
2019-05-10T15:29:24.630Z,1.60
2019-05-10T15:32:07.473Z,1.33
2019-05-10T15:34:39.363Z,4.90
2019-05-10T15:37:22.182Z,1.33
2019-05-10T15:40:00.489Z,1.77
2019-05-10T15:42:38.366Z,4.07
2019-05-10T15:45:14.715Z,1.20
2019-05-10T15:47:57.592Z,4.00
2019-05-10T15:50:32.483Z,4.27
2019-05-10T15:53:00.286Z,1.33
2019-05-10T15:55:35.957Z,3.07
2019-05-10T15:58:10.889Z,2.00
2019-05-10T16:00:43.949Z,3.67
2019-05-10T16:03:17.252Z,3.13
2019-05-10T16:06:00.501Z,3.93
2019-05-10T16:08:31.973Z,2.43
2019-05-10T16:11:03.830Z,1.40
2019-05-10T16:13:35.572Z,2.00
2019-05-10T16:16:09.961Z,1.53
2019-05-10T16:18:43.289Z,2.30
2019-05-10T16:21:16.874Z,4.10
2019-05-10T16:23:53.114Z,2.90
2019-05-10T16:26:29.600Z,1.40
2019-05-10T16:29:21.736Z,2.60
2019-05-10T16:31:52.118Z,4.20
2019-05-10T16:34:32.199Z,1.47
2019-05-10T16:37:06.195Z,1.33
2019-05-10T16:39:41.534Z,1.57
2019-05-10T16:42:20.972Z,3.77
2019-05-10T16:44:55.802Z,1.83
2019-05-10T16:47:26.155Z,2.97
2019-05-10T16:50:05.148Z,2.17
2019-05-10T16:52:37.353Z,2.53
2019-05-10T16:58:15.347Z,2.70
2019-05-10T17:00:54.265Z,2.73
2019-05-10T17:03:40.089Z,1.70
2019-05-10T17:06:16.412Z,3.27
2019-05-10T17:09:02.009Z,1.97
2019-05-10T17:11:46.730Z,2.00
2019-05-10T17:14:19.669Z,3.93
2019-05-10T17:17:00.120Z,3.97
2019-05-10T17:19:37.850Z,3.23
2019-05-10T17:22:18.967Z,2.23
2019-05-10T17:24:56.759Z,2.67
2019-05-10T17:27:25.516Z,2.77
2019-05-10T17:30:06.627Z,2.23
2019-05-10T17:32:33.469Z,3.07
2019-05-10T17:35:11.737Z,1.60
2019-05-10T17:37:43.712Z,3.20
2019-05-10T17:40:18.922Z,2.67
2019-05-10T17:42:52.372Z,2.30
2019-05-10T17:45:26.821Z,1.60
2019-05-10T17:47:58.535Z,2.40
2019-05-10T17:50:40.936Z,1.33
2019-05-10T17:53:08.902Z,3.20
2019-05-10T17:55:41.791Z,2.23
2019-05-10T17:58:21.276Z,3.73
2019-05-10T18:00:57.494Z,3.10
2019-05-10T18:03:43.210Z,2.33
2019-05-10T18:06:24.106Z,1.60
2019-05-10T18:08:58.642Z,3.07
2019-05-10T18:11:36.759Z,1.87
2019-05-10T18:14:12.568Z,2.23
2019-05-10T18:16:57.084Z,4.43
2019-05-10T18:19:19.165Z,1.70
2019-05-10T18:22:05.554Z,1.60
2019-05-10T18:24:44.185Z,1.93
2019-05-10T18:27:21.870Z,1.63
2019-05-10T18:29:56.445Z,3.00
2019-05-10T18:32:38.784Z,2.00
2019-05-10T18:35:14.791Z,3.40
2019-05-10T18:37:45.238Z,3.53
2019-05-10T18:40:18.963Z,4.73
2019-05-10T18:42:57.983Z,1.50
2019-05-10T18:45:30.118Z,4.53
2019-05-10T18:48:06.195Z,2.27
2019-05-10T18:50:47.240Z,2.47
2019-05-10T18:53:26.868Z,3.70
2019-05-10T18:56:08.560Z,2.80
2019-05-10T18:58:49.133Z,2.03
2019-05-10T19:01:27.183Z,3.23
2019-05-10T19:04:00.862Z,2.17
2019-05-10T19:06:36.848Z,3.00
2019-05-10T19:09:07.424Z,3.47
2019-05-10T19:11:40.873Z,3.33
2019-05-10T19:14:16.935Z,3.00
2019-05-10T19:16:50.124Z,2.30
2019-05-10T19:19:26.798Z,2.40
2019-05-10T19:22:03.168Z,4.60
2019-05-10T19:24:32.085Z,2.33
2019-05-10T19:27:19.072Z,3.87
2019-05-10T19:29:56.310Z,3.77
2019-05-10T19:32:33.614Z,3.00
2019-05-10T19:35:05.810Z,4.20
2019-05-10T19:37:44.109Z,3.07
2019-05-10T19:40:17.987Z,2.40
2019-05-10T19:42:53.607Z,3.63
2019-05-10T19:45:31.295Z,3.73
2019-05-10T19:48:00.232Z,3.80
2019-05-10T19:50:31.213Z,4.47
2019-05-10T19:53:03.891Z,4.63
2019-05-10T19:55:33.275Z,3.10
2019-05-10T19:58:09.224Z,4.07
2019-05-10T20:00:39.156Z,5.70
2019-05-10T20:03:09.106Z,3.30
2019-05-10T20:05:39.059Z,5.37
2019-05-10T20:08:09.012Z,3.87
2019-05-10T20:10:46.954Z,5.87
2019-05-10T20:13:17.020Z,4.67
2019-05-10T20:15:46.955Z,4.10
2019-05-10T20:18:16.877Z,4.83
2019-05-10T20:20:46.854Z,5.17
2019-05-10T20:23:17.400Z,3.60
2019-05-10T20:25:48.330Z,4.03
2019-05-10T20:28:18.642Z,4.50
2019-05-10T20:30:48.564Z,3.70
2019-05-10T20:33:18.593Z,3.63
2019-05-10T20:35:48.814Z,3.73
2019-05-10T20:38:18.828Z,3.63
2019-05-10T20:40:48.774Z,3.70
2019-05-10T20:43:18.695Z,6.63
2019-05-10T20:45:48.745Z,5.90
2019-05-10T20:48:18.944Z,5.47
2019-05-10T20:50:50.129Z,4.80
2019-05-10T20:53:20.041Z,6.10
2019-05-10T20:55:49.965Z,8.63
2019-05-10T20:58:19.884Z,4.97
2019-05-10T21:00:49.826Z,6.60
2019-05-10T21:03:20.889Z,6.90
2019-05-10T21:05:50.860Z,6.10
2019-05-10T21:08:20.795Z,10.67
2019-05-10T21:10:50.760Z,8.50
2019-05-10T21:13:20.724Z,7.30
2019-05-10T21:15:50.667Z,6.63
2019-05-10T21:18:22.192Z,7.43
2019-05-10T21:20:52.106Z,8.93
2019-05-10T21:23:23.541Z,6.10
2019-05-10T21:25:53.465Z,7.47
2019-05-10T21:28:23.434Z,6.83
2019-05-10T21:30:53.812Z,7.17
2019-05-10T21:33:23.856Z,7.87
2019-05-10T21:35:53.847Z,6.90
2019-05-10T21:38:32.717Z,7.73
2019-05-10T21:40:55.530Z,7.20
2019-05-10T21:43:25.523Z,6.77
2019-05-10T21:45:57.092Z,7.03
2019-05-10T21:48:27.162Z,7.43
2019-05-10T21:50:57.447Z,5.90
2019-05-10T21:53:27.559Z,5.70
2019-05-10T21:55:57.518Z,12.87
2019-05-10T21:58:35.913Z,7.70
2019-05-10T22:01:06.175Z,5.97
2019-05-10T22:03:38.891Z,8.53
2019-05-10T22:06:08.857Z,6.70
2019-05-10T22:08:48.885Z,5.90
2019-05-10T22:11:10.493Z,5.27
2019-05-10T22:13:40.578Z,6.17
2019-05-10T22:16:10.716Z,6.47
2019-05-10T22:18:41.609Z,5.70
2019-05-10T22:21:11.627Z,7.67
2019-05-10T22:23:41.764Z,7.57
2019-05-10T22:26:11.896Z,6.10
2019-05-10T22:28:41.927Z,5.87
2019-05-10T22:31:11.980Z,5.67
2019-05-10T22:33:42.063Z,8.30
2019-05-10T22:36:12.070Z,7.40
2019-05-10T22:38:44.003Z,5.53
2019-05-10T22:41:14.018Z,7.53
2019-05-10T22:43:44.238Z,7.83
2019-05-10T22:46:14.232Z,7.60
2019-05-10T22:48:44.244Z,7.70
2019-05-10T22:51:14.318Z,9.50
2019-05-10T22:53:44.330Z,7.73
2019-05-10T22:56:14.323Z,5.97
2019-05-10T22:58:44.318Z,6.13
2019-05-10T23:01:14.340Z,6.67
2019-05-10T23:03:44.403Z,6.27
2019-05-10T23:06:14.392Z,6.63
2019-05-10T23:08:44.382Z,5.97
2019-05-10T23:11:14.423Z,5.87
2019-05-10T23:13:44.470Z,5.60
2019-05-10T23:16:16.235Z,4.90
2019-05-10T23:18:46.240Z,4.73
2019-05-10T23:21:16.323Z,6.50
2019-05-10T23:23:46.324Z,6.40
2019-05-10T23:26:16.367Z,4.90
2019-05-10T23:28:46.518Z,5.40
2019-05-10T23:31:16.536Z,3.97
2019-05-10T23:33:46.551Z,4.97
2019-05-10T23:36:16.501Z,6.07
2019-05-10T23:38:52.166Z,5.47
2019-05-10T23:41:18.246Z,7.03
2019-05-10T23:43:48.285Z,5.10
2019-05-10T23:46:18.381Z,5.93
2019-05-10T23:48:48.601Z,5.60
2019-05-10T23:51:18.695Z,5.07
2019-05-10T23:53:48.688Z,4.43
2019-05-10T23:56:18.706Z,6.43
2019-05-10T23:58:48.704Z,5.47
